createdAt,value
2023-03-04T00:00:56.723Z,4.56
2023-03-04T00:02:58.428Z,4.58
2023-03-04T00:04:59.956Z,4.58
2023-03-04T00:07:01.649Z,4.61
2023-03-04T00:09:03.358Z,4.59
2023-03-04T00:11:05.116Z,4.60
2023-03-04T00:13:08.082Z,4.61
2023-03-04T00:15:10.340Z,4.63
2023-03-04T00:17:12.375Z,4.62
2023-03-04T00:19:14.066Z,4.63
2023-03-04T00:21:15.630Z,4.65
2023-03-04T00:23:17.958Z,4.65
2023-03-04T00:25:19.778Z,4.65
2023-03-04T00:27:21.366Z,4.66
2023-03-04T00:29:24.500Z,4.65
2023-03-04T00:31:27.051Z,4.67
2023-03-04T00:33:28.675Z,4.67
2023-03-04T00:35:30.309Z,4.67
2023-03-04T00:37:31.882Z,4.69
2023-03-04T00:39:33.550Z,4.71
2023-03-04T00:41:35.108Z,4.71
2023-03-04T00:43:36.685Z,4.73
2023-03-04T00:45:40.027Z,4.73
2023-03-04T00:47:41.701Z,4.76
2023-03-04T00:49:43.612Z,4.76
2023-03-04T00:51:45.406Z,4.78
2023-03-04T00:53:47.461Z,4.79
2023-03-04T00:55:48.946Z,4.81
2023-03-04T00:57:50.600Z,4.80
2023-03-04T00:59:52.286Z,4.83
2023-03-04T01:01:55.433Z,4.84
2023-03-04T01:03:57.028Z,4.85
2023-03-04T01:05:59.113Z,4.86
2023-03-04T01:08:00.656Z,4.87
2023-03-04T01:10:02.306Z,4.88
2023-03-04T01:12:04.257Z,4.88
2023-03-04T01:14:05.939Z,4.90
2023-03-04T01:16:08.198Z,4.91
2023-03-04T01:18:11.755Z,4.93
2023-03-04T01:20:14.021Z,4.94
2023-03-04T01:22:15.667Z,4.95
2023-03-04T01:24:17.532Z,4.97
2023-03-04T01:26:19.071Z,4.98
2023-03-04T01:28:20.958Z,4.96
2023-03-04T01:30:22.607Z,4.99
2023-03-04T01:32:24.289Z,4.99
2023-03-04T01:34:27.286Z,5.01
2023-03-04T01:36:29.175Z,5.00
2023-03-04T01:38:30.780Z,5.02
2023-03-04T01:40:33.296Z,5.02
2023-03-04T01:42:36.223Z,5.02
2023-03-04T01:44:39.305Z,5.03
2023-03-04T01:46:44.112Z,5.01
2023-03-04T01:48:45.676Z,5.04
2023-03-04T01:50:48.730Z,5.04
2023-03-04T01:52:50.519Z,5.05
2023-03-04T01:54:52.245Z,5.07
2023-03-04T01:56:55.647Z,5.07
2023-03-04T01:59:09.120Z,5.08
2023-03-04T02:01:11.420Z,5.08
2023-03-04T02:03:15.903Z,5.08
2023-03-04T02:05:17.997Z,5.09
2023-03-04T02:07:21.846Z,5.12
2023-03-04T02:09:24.133Z,5.12
2023-03-04T02:11:26.223Z,5.13
2023-03-04T02:13:28.056Z,5.15
2023-03-04T02:15:30.022Z,5.16
2023-03-04T02:17:33.050Z,5.17
2023-03-04T02:19:46.674Z,5.17
2023-03-04T02:21:48.225Z,5.17
2023-03-04T02:23:58.254Z,5.20
2023-03-04T02:26:19.617Z,5.23
2023-03-04T02:28:21.906Z,5.22
2023-03-04T02:30:24.736Z,5.22
2023-03-04T02:32:26.387Z,5.24
2023-03-04T02:34:30.468Z,5.23
2023-03-04T02:36:33.265Z,5.26
2023-03-04T02:38:34.828Z,5.27
2023-03-04T02:40:39.310Z,5.25
2023-03-04T02:42:43.930Z,5.29
2023-03-04T02:44:47.140Z,5.30
2023-03-04T02:46:50.406Z,5.31
2023-03-04T02:48:52.784Z,5.32
2023-03-04T02:50:55.333Z,5.33
2023-03-04T02:52:57.028Z,5.34
2023-03-04T02:54:58.597Z,5.34
2023-03-04T02:57:02.688Z,5.35
2023-03-04T02:59:05.807Z,5.35
2023-03-04T03:01:07.366Z,5.35
2023-03-04T03:03:09.408Z,5.37
2023-03-04T03:05:12.207Z,5.37
2023-03-04T03:07:13.788Z,5.37
2023-03-04T03:09:15.594Z,5.38
2023-03-04T03:11:17.476Z,5.38
2023-03-04T03:13:19.089Z,5.40
2023-03-04T03:15:22.673Z,5.39
2023-03-04T03:17:24.509Z,5.42
2023-03-04T03:19:26.328Z,5.42
2023-03-04T03:21:28.214Z,5.43
2023-03-04T03:23:29.758Z,5.44
2023-03-04T03:25:31.371Z,5.44
2023-03-04T03:27:33.610Z,5.44
2023-03-04T03:29:35.232Z,5.44
2023-03-04T03:31:38.197Z,5.44
2023-03-04T03:33:40.345Z,5.45
2023-03-04T03:35:42.144Z,5.45
2023-03-04T03:37:43.979Z,5.45
2023-03-04T03:39:45.901Z,5.46
2023-03-04T03:41:47.836Z,5.47
2023-03-04T03:43:49.449Z,5.46
2023-03-04T03:45:51.043Z,5.47
2023-03-04T03:47:54.254Z,5.46
2023-03-04T03:49:56.109Z,5.46
2023-03-04T03:51:57.951Z,5.46
2023-03-04T03:53:59.563Z,5.46
2023-03-04T03:56:01.132Z,5.48
2023-03-04T03:58:02.680Z,5.48
2023-03-04T04:00:05.268Z,5.48
2023-03-04T04:02:07.227Z,5.49
2023-03-04T04:04:10.332Z,5.50
2023-03-04T04:06:14.083Z,5.50
2023-03-04T04:08:16.131Z,5.50
2023-03-04T04:10:18.149Z,5.51
2023-03-04T04:12:20.190Z,5.50
2023-03-04T04:14:21.825Z,5.53
2023-03-04T04:16:23.429Z,5.53
2023-03-04T04:18:25.148Z,5.54
2023-03-04T04:20:28.181Z,5.51
2023-03-04T04:22:29.733Z,5.55
2023-03-04T04:24:31.263Z,5.55
2023-03-04T04:26:32.847Z,5.56
2023-03-04T04:28:34.695Z,5.57
2023-03-04T04:30:36.730Z,5.58
2023-03-04T04:32:38.468Z,5.60
2023-03-04T04:34:40.086Z,5.58
2023-03-04T04:36:43.102Z,5.61
2023-03-04T04:38:44.741Z,5.61
2023-03-04T04:40:46.309Z,5.62
2023-03-04T04:42:47.993Z,5.63
2023-03-04T04:44:49.930Z,5.64
2023-03-04T04:46:51.820Z,5.64
2023-03-04T04:48:53.511Z,5.66
2023-03-04T04:50:56.296Z,5.66
2023-03-04T04:52:59.580Z,5.68
2023-03-04T04:55:01.343Z,5.69
2023-03-04T04:57:02.982Z,5.70
2023-03-04T04:59:05.937Z,5.70
2023-03-04T05:01:08.577Z,5.71
2023-03-04T05:03:10.393Z,5.72
2023-03-04T05:05:12.009Z,5.70
2023-03-04T05:07:13.535Z,5.73
2023-03-04T05:09:16.638Z,5.74
2023-03-04T05:11:19.318Z,5.74
2023-03-04T05:13:21.556Z,5.74
2023-03-04T05:15:23.125Z,5.75
2023-03-04T05:17:24.957Z,5.75
2023-03-04T05:19:27.201Z,5.76
2023-03-04T05:21:28.913Z,5.76
2023-03-04T05:23:33.114Z,5.77
2023-03-04T05:25:36.242Z,5.77
2023-03-04T05:27:37.841Z,5.77
2023-03-04T05:29:39.648Z,5.77
2023-03-04T05:31:42.667Z,5.77
2023-03-04T05:33:44.327Z,5.77
2023-03-04T05:35:46.864Z,5.77
2023-03-04T05:37:48.480Z,5.77
2023-03-04T05:39:50.034Z,5.77
2023-03-04T05:41:53.464Z,5.77
2023-03-04T05:43:55.028Z,5.77
2023-03-04T05:45:56.716Z,5.78
2023-03-04T05:47:58.514Z,5.77
2023-03-04T05:50:02.974Z,5.77
2023-03-04T05:52:04.611Z,5.77
2023-03-04T05:54:06.438Z,5.75
2023-03-04T05:56:11.471Z,5.77
2023-03-04T05:58:14.856Z,5.76
2023-03-04T06:00:17.361Z,5.76
2023-03-04T06:02:18.920Z,5.77
2023-03-04T06:04:20.601Z,5.80
2023-03-04T06:06:22.639Z,5.79
2023-03-04T06:08:24.682Z,5.78
2023-03-04T06:10:26.346Z,5.78
2023-03-04T06:12:28.197Z,5.78
2023-03-04T06:14:31.546Z,5.76
2023-03-04T06:16:33.528Z,5.76
2023-03-04T06:18:35.113Z,5.75
2023-03-04T06:20:37.046Z,5.75
2023-03-04T06:22:39.001Z,5.76
2023-03-04T06:24:40.513Z,5.76
2023-03-04T06:26:42.105Z,5.76
2023-03-04T06:28:44.821Z,5.74
2023-03-04T06:30:47.912Z,5.74
2023-03-04T06:32:50.103Z,5.74
2023-03-04T06:34:51.705Z,5.72
2023-03-04T06:36:53.258Z,5.73
2023-03-04T06:38:54.805Z,5.74
2023-03-04T06:40:57.562Z,5.69
2023-03-04T06:42:59.702Z,5.72
2023-03-04T06:45:01.746Z,5.72
2023-03-04T06:47:05.053Z,5.69
2023-03-04T06:49:06.632Z,5.67
2023-03-04T06:51:10.497Z,5.66
2023-03-04T06:53:12.089Z,5.66
2023-03-04T06:55:14.341Z,5.67
2023-03-04T06:57:16.001Z,5.67
2023-03-04T06:59:17.769Z,5.67
2023-03-04T07:01:22.227Z,5.67
2023-03-04T07:03:25.170Z,5.66
2023-03-04T07:05:26.963Z,5.67
2023-03-04T07:07:28.615Z,5.65
2023-03-04T07:09:30.400Z,5.66
2023-03-04T07:11:32.861Z,5.69
2023-03-04T07:13:34.511Z,5.69
2023-03-04T07:15:37.246Z,5.67
2023-03-04T07:17:38.877Z,5.69
2023-03-04T07:19:42.112Z,5.69
2023-03-04T07:21:43.760Z,5.68
2023-03-04T07:23:46.128Z,5.67
2023-03-04T07:25:49.910Z,5.71
2023-03-04T07:27:51.748Z,5.69
2023-03-04T07:29:53.374Z,5.68
2023-03-04T07:31:55.138Z,5.70
2023-03-04T07:33:58.708Z,5.73
2023-03-04T07:36:01.789Z,5.73
2023-03-04T07:38:03.455Z,5.73
2023-03-04T07:40:06.192Z,5.75
2023-03-04T07:42:07.943Z,5.73
2023-03-04T07:44:13.271Z,5.74
2023-03-04T07:46:15.301Z,5.78
2023-03-04T07:48:17.022Z,5.78
2023-03-04T07:50:19.287Z,5.78
2023-03-04T07:52:22.326Z,5.78
2023-03-04T07:54:23.841Z,5.81
2023-03-04T07:56:27.761Z,5.81
2023-03-04T07:58:29.376Z,5.84
2023-03-04T08:00:30.972Z,5.84
2023-03-04T08:02:32.832Z,5.84
2023-03-04T08:04:34.368Z,5.87
2023-03-04T08:06:36.592Z,5.89
2023-03-04T08:08:40.469Z,5.90
2023-03-04T08:10:42.521Z,5.93
2023-03-04T08:12:44.420Z,5.95
2023-03-04T08:14:46.156Z,5.95
2023-03-04T08:16:47.683Z,5.97
2023-03-04T08:18:53.009Z,5.99
2023-03-04T08:20:55.209Z,6.01
2023-03-04T08:22:56.792Z,5.99
2023-03-04T08:24:59.930Z,5.96
2023-03-04T08:27:01.759Z,5.99
2023-03-04T08:29:05.779Z,6.04
2023-03-04T08:31:07.656Z,6.05
2023-03-04T08:33:10.754Z,6.07
2023-03-04T08:35:12.240Z,6.10
2023-03-04T08:37:13.849Z,6.09
2023-03-04T08:39:17.485Z,6.09
2023-03-04T08:41:21.147Z,6.10
2023-03-04T08:43:24.620Z,6.13
2023-03-04T08:45:26.512Z,6.12
2023-03-04T08:47:28.353Z,6.12
2023-03-04T08:49:29.941Z,6.14
2023-03-04T08:51:31.690Z,6.16
2023-03-04T08:53:33.329Z,6.19
2023-03-04T08:55:35.036Z,6.18
2023-03-04T08:57:38.351Z,6.20
2023-03-04T08:59:39.943Z,6.24
2023-03-04T09:01:41.608Z,6.21
2023-03-04T09:03:43.399Z,6.24
2023-03-04T09:05:45.614Z,6.22
2023-03-04T09:07:47.351Z,6.24
2023-03-04T09:09:49.239Z,6.25
2023-03-04T09:11:50.960Z,6.26
2023-03-04T09:13:54.020Z,6.27
2023-03-04T09:15:55.675Z,6.28
2023-03-04T09:17:57.544Z,6.27
2023-03-04T09:19:59.478Z,6.27
2023-03-04T09:22:01.058Z,6.27
2023-03-04T09:24:02.635Z,6.28
2023-03-04T09:26:14.710Z,6.27
2023-03-04T09:28:18.578Z,6.28
2023-03-04T09:30:22.278Z,6.27
2023-03-04T09:32:23.971Z,6.27
2023-03-04T09:34:25.890Z,6.23
2023-03-04T09:36:27.583Z,6.24
2023-03-04T09:38:29.126Z,6.25
2023-03-04T09:40:37.606Z,6.25
2023-03-04T09:42:47.306Z,6.25
2023-03-04T09:44:49.146Z,6.24
2023-03-04T09:46:55.883Z,6.26
2023-03-04T09:48:57.827Z,6.24
2023-03-04T09:51:11.357Z,6.25
2023-03-04T09:53:21.106Z,6.22
2023-03-04T09:55:25.572Z,6.25
2023-03-04T09:57:40.296Z,6.21
2023-03-04T09:59:50.985Z,6.24
2023-03-04T10:01:55.346Z,6.25
2023-03-04T10:04:03.044Z,6.26
2023-03-04T10:06:07.524Z,6.26
2023-03-04T10:08:34.494Z,6.31
2023-03-04T10:10:39.383Z,6.29
2023-03-04T10:12:47.131Z,6.32
2023-03-04T10:14:54.366Z,6.38
2023-03-04T10:17:03.580Z,6.42
2023-03-04T10:19:22.842Z,6.47
2023-03-04T10:21:32.212Z,6.51
2023-03-04T10:23:35.473Z,6.53
2023-03-04T10:25:43.572Z,6.58
2023-03-04T10:27:55.085Z,6.61
2023-03-04T10:30:00.847Z,6.63
2023-03-04T10:32:04.072Z,6.61
2023-03-04T10:34:06.401Z,6.61
2023-03-04T10:36:30.607Z,6.65
2023-03-04T10:38:34.882Z,6.63
2023-03-04T10:40:39.033Z,6.64
2023-03-04T10:42:41.053Z,6.69
2023-03-04T10:44:45.108Z,6.73
2023-03-04T10:46:48.896Z,6.80
2023-03-04T10:48:53.172Z,6.83
2023-03-04T10:51:10.119Z,6.98
2023-03-04T10:53:25.639Z,7.08
2023-03-04T10:55:29.736Z,7.16
2023-03-04T10:57:35.973Z,7.40
2023-03-04T10:59:44.356Z,7.46
2023-03-04T11:01:45.901Z,7.70
2023-03-04T11:03:49.452Z,7.85
2023-03-04T11:06:03.573Z,8.04
2023-03-04T11:08:05.368Z,8.22
2023-03-04T11:10:16.826Z,8.29
2023-03-04T11:12:21.197Z,8.32
2023-03-04T11:14:25.578Z,8.36
2023-03-04T11:16:29.688Z,8.41
2023-03-04T11:18:42.827Z,8.43
2023-03-04T11:20:47.708Z,8.42
2023-03-04T11:22:52.327Z,8.41
2023-03-04T11:25:01.498Z,8.39
2023-03-04T11:27:06.893Z,8.35
2023-03-04T11:29:14.937Z,8.33
2023-03-04T11:31:21.492Z,8.32
2023-03-04T11:33:32.366Z,8.32
2023-03-04T11:35:43.265Z,8.38
2023-03-04T11:37:51.432Z,8.41
2023-03-04T11:39:58.931Z,8.53
2023-03-04T11:42:07.774Z,8.62
2023-03-04T11:44:12.602Z,8.71
2023-03-04T11:46:49.598Z,8.87
2023-03-04T11:49:01.211Z,8.99
2023-03-04T11:51:11.461Z,9.01
2023-03-04T11:53:36.773Z,9.05
2023-03-04T11:55:45.894Z,9.13
2023-03-04T11:57:58.459Z,9.19
2023-03-04T12:00:21.734Z,9.26
2023-03-04T12:02:29.998Z,9.33
2023-03-04T12:05:04.308Z,9.45
2023-03-04T12:07:32.302Z,9.59
2023-03-04T12:09:42.969Z,9.73
2023-03-04T12:12:03.031Z,9.82
2023-03-04T12:14:22.596Z,9.95
2023-03-04T12:16:48.627Z,10.07
2023-03-04T12:19:10.528Z,10.18
2023-03-04T12:21:25.066Z,10.27
2023-03-04T12:23:41.641Z,10.37
2023-03-04T12:25:48.783Z,10.48
2023-03-04T12:28:01.348Z,10.59
2023-03-04T12:30:11.137Z,10.70
2023-03-04T12:32:19.480Z,10.84
2023-03-04T12:34:33.394Z,10.98
2023-03-04T12:36:44.966Z,11.07
2023-03-04T12:39:01.232Z,11.17
2023-03-04T12:41:14.843Z,11.25
2023-03-04T12:43:30.364Z,11.35
2023-03-04T12:45:44.201Z,11.43
2023-03-04T12:47:58.421Z,11.52
2023-03-04T12:50:22.290Z,11.44
2023-03-04T12:52:37.743Z,11.40
2023-03-04T12:54:41.830Z,11.35
2023-03-04T12:56:46.245Z,11.38
2023-03-04T12:58:50.067Z,11.42
2023-03-04T13:01:05.068Z,11.52
2023-03-04T13:03:15.734Z,11.58
2023-03-04T13:05:29.644Z,11.60
2023-03-04T13:07:41.851Z,11.66
2023-03-04T13:09:52.733Z,11.60
2023-03-04T13:12:04.259Z,11.54
2023-03-04T13:14:22.097Z,11.44
2023-03-04T13:16:32.748Z,11.32
2023-03-04T13:18:36.264Z,11.20
2023-03-04T13:20:40.652Z,11.08
2023-03-04T14:58:55.349Z,10.66
2023-03-04T15:01:19.506Z,10.61
2023-03-04T15:03:24.139Z,10.48
2023-03-04T15:05:28.649Z,10.41
2023-03-04T15:07:34.322Z,10.33
2023-03-04T15:09:36.092Z,10.22
2023-03-04T15:11:46.548Z,10.17
2023-03-04T15:13:50.580Z,10.06
2023-03-04T15:16:01.230Z,10.00
2023-03-04T15:18:04.357Z,9.90
2023-03-04T15:20:25.885Z,9.86
2023-03-04T15:22:27.683Z,9.71
2023-03-04T15:24:29.245Z,9.62
2023-03-04T15:26:32.691Z,9.55
2023-03-04T15:28:36.328Z,9.48
2023-03-04T15:30:39.474Z,9.41
2023-03-04T15:32:42.701Z,9.26
2023-03-04T15:34:44.243Z,9.23
2023-03-04T15:36:47.864Z,9.16
2023-03-04T15:38:51.662Z,9.05
2023-03-04T15:40:54.685Z,8.98
2023-03-04T15:42:58.875Z,8.91
2023-03-04T15:45:00.541Z,8.80
2023-03-04T15:47:02.234Z,8.73
2023-03-04T15:49:05.427Z,8.60
2023-03-04T15:51:13.895Z,8.52
2023-03-04T15:57:49.445Z,8.21
2023-03-04T15:59:51.640Z,8.16
2023-03-04T16:01:54.692Z,8.08
2023-03-04T16:03:56.878Z,8.00
2023-03-04T16:06:00.348Z,7.88
2023-03-04T16:08:02.154Z,7.82
2023-03-04T16:10:07.833Z,7.77
2023-03-04T16:12:11.360Z,7.70
2023-03-04T16:14:14.264Z,7.63
2023-03-04T16:16:15.984Z,7.55
2023-03-04T16:18:18.332Z,7.45
2023-03-04T16:20:22.235Z,7.34
2023-03-04T16:22:30.024Z,7.29
2023-03-04T16:24:33.982Z,7.17
2023-03-04T16:26:37.072Z,7.12
2023-03-04T16:28:39.794Z,7.06
2023-03-04T16:30:43.185Z,6.97
2023-03-04T16:32:45.213Z,6.90
2023-03-04T16:34:47.131Z,6.82
2023-03-04T16:36:49.141Z,6.73
2023-03-04T16:38:55.553Z,6.66
2023-03-04T16:40:59.589Z,6.56
2023-03-04T16:43:01.405Z,6.49
2023-03-04T16:45:03.974Z,6.41
2023-03-04T16:47:06.256Z,6.36
2023-03-04T16:49:07.913Z,6.27
2023-03-04T16:51:14.212Z,6.20
2023-03-04T16:53:27.263Z,6.10
2023-03-04T16:55:32.855Z,6.03
2023-03-04T16:57:34.482Z,5.98
2023-03-04T16:59:36.336Z,5.92
2023-03-04T17:01:38.156Z,5.85
2023-03-04T17:03:41.199Z,5.79
2023-03-04T17:05:43.021Z,5.74
2023-03-04T17:07:45.275Z,5.68
2023-03-04T17:09:46.920Z,5.64
2023-03-04T17:11:49.994Z,5.59
2023-03-04T17:13:52.210Z,5.52
2023-03-04T17:15:54.252Z,5.47
2023-03-04T17:17:55.875Z,5.43
2023-03-04T17:19:58.078Z,5.36
2023-03-04T17:22:02.259Z,5.31
2023-03-04T17:24:04.120Z,5.24
2023-03-04T17:26:06.258Z,5.18
2023-03-04T17:28:09.734Z,5.13
2023-03-04T17:30:13.785Z,5.07
2023-03-04T17:32:15.610Z,5.01
2023-03-04T17:34:17.668Z,4.97
2023-03-04T17:36:20.229Z,4.91
2023-03-04T17:38:21.875Z,4.85
2023-03-04T17:40:23.665Z,4.80
2023-03-04T17:42:25.345Z,4.75
2023-03-04T17:44:28.403Z,4.70
2023-03-04T17:46:30.222Z,4.67
2023-03-04T17:48:32.161Z,4.61
2023-03-04T17:50:33.917Z,4.57
2023-03-04T17:52:35.826Z,4.52
2023-03-04T17:54:38.455Z,4.47
2023-03-04T17:56:40.795Z,4.43
2023-03-04T17:58:42.699Z,4.37
2023-03-04T18:00:46.119Z,4.33
2023-03-04T18:02:48.314Z,4.29
2023-03-04T18:04:50.947Z,4.24
2023-03-04T18:06:52.539Z,4.21
2023-03-04T18:08:54.869Z,4.17
2023-03-04T18:10:56.478Z,4.13
2023-03-04T18:12:58.233Z,4.08
2023-03-04T18:14:59.820Z,4.05
2023-03-04T18:17:02.802Z,4.01
2023-03-04T18:19:04.881Z,3.97
2023-03-04T18:21:07.071Z,3.92
2023-03-04T18:23:09.000Z,3.89
2023-03-04T18:25:12.741Z,3.84
2023-03-04T18:27:16.735Z,3.81
2023-03-04T18:29:18.343Z,3.76
2023-03-04T18:31:31.077Z,3.74
2023-03-04T18:33:35.245Z,3.70
2023-03-04T18:35:36.879Z,3.66
2023-03-04T18:37:38.923Z,3.61
2023-03-04T18:39:40.808Z,3.58
2023-03-04T18:41:42.361Z,3.54
2023-03-04T18:43:44.233Z,3.50
2023-03-04T18:45:45.841Z,3.48
2023-03-04T18:47:50.422Z,3.45
2023-03-04T18:49:53.343Z,3.42
2023-03-04T18:51:55.143Z,3.38
2023-03-04T18:53:56.976Z,3.35
2023-03-04T18:56:02.438Z,3.32
2023-03-04T18:58:04.499Z,3.28
2023-03-04T19:00:09.955Z,3.26
2023-03-04T19:02:18.370Z,3.23
2023-03-04T19:04:23.807Z,3.20
2023-03-04T19:06:28.349Z,3.16
2023-03-04T19:08:30.448Z,3.15
2023-03-04T19:10:32.812Z,3.12
2023-03-04T19:12:34.392Z,3.10
2023-03-04T19:14:35.957Z,3.08
2023-03-04T19:16:38.041Z,3.05
2023-03-04T19:18:39.586Z,3.02
2023-03-04T19:20:41.915Z,2.98
2023-03-04T19:22:46.023Z,2.94
2023-03-04T19:24:47.606Z,2.92
2023-03-04T19:26:49.502Z,2.90
2023-03-04T19:28:51.812Z,2.86
2023-03-04T19:30:54.855Z,2.83
2023-03-04T19:32:56.764Z,2.82
2023-03-04T19:34:58.751Z,2.79
2023-03-04T19:37:00.589Z,2.76
2023-03-04T19:39:04.976Z,2.73
2023-03-04T19:41:11.132Z,2.68
2023-03-04T19:43:14.745Z,2.64
2023-03-04T19:45:16.986Z,2.62
2023-03-04T19:47:19.109Z,2.61
2023-03-04T19:49:21.052Z,2.56
2023-03-04T19:51:24.835Z,2.55
2023-03-04T19:53:26.607Z,2.52
2023-03-04T19:55:29.945Z,2.51
2023-03-04T19:57:31.728Z,2.48
2023-03-04T19:59:35.252Z,2.45
2023-03-04T20:01:37.797Z,2.42
2023-03-04T20:03:39.424Z,2.41
2023-03-04T20:05:41.202Z,2.37
2023-03-04T20:07:42.788Z,2.35
2023-03-04T20:09:44.681Z,2.34
2023-03-04T20:11:57.724Z,2.30
2023-03-04T20:14:01.397Z,2.27
2023-03-04T20:16:10.317Z,2.24
2023-03-04T20:18:12.274Z,2.21
2023-03-04T20:20:14.466Z,2.20
2023-03-04T20:22:15.959Z,2.16
2023-03-04T20:24:17.563Z,2.14
2023-03-04T20:26:19.515Z,2.12
2023-03-04T20:28:23.096Z,2.07
2023-03-04T20:30:27.201Z,2.07
2023-03-04T20:32:29.110Z,2.04
2023-03-04T20:34:31.202Z,2.01
2023-03-04T20:36:33.282Z,1.98
2023-03-04T20:38:35.196Z,1.96
2023-03-04T20:40:37.651Z,1.93
2023-03-04T20:42:40.439Z,1.92
2023-03-04T20:44:43.834Z,1.90
2023-03-04T20:46:45.637Z,1.88
2023-03-04T20:48:47.174Z,1.87
2023-03-04T20:50:49.031Z,1.84
2023-03-04T20:52:50.804Z,1.83
2023-03-04T20:54:52.746Z,1.81
2023-03-04T20:56:54.597Z,1.79
2023-03-04T20:58:59.832Z,1.78
2023-03-04T21:01:03.124Z,1.76
2023-03-04T21:03:04.718Z,1.73
2023-03-04T21:05:07.551Z,1.73
2023-03-04T21:07:09.647Z,1.72
2023-03-04T21:09:14.957Z,1.71
2023-03-04T21:11:17.419Z,1.69
2023-03-04T21:13:19.383Z,1.68
2023-03-04T21:15:21.499Z,1.66
2023-03-04T21:17:26.026Z,1.66
2023-03-04T21:19:29.990Z,1.66
2023-03-04T21:21:31.903Z,1.65
2023-03-04T21:23:33.781Z,1.66
2023-03-04T21:25:35.638Z,1.67
2023-03-04T21:27:37.780Z,1.67
2023-03-04T21:29:39.877Z,1.68
2023-03-04T21:31:45.053Z,1.70
2023-03-04T21:33:48.507Z,1.71
2023-03-04T21:35:50.202Z,1.72
2023-03-04T21:37:51.859Z,1.74
2023-03-04T21:39:53.883Z,1.75
2023-03-04T21:41:57.341Z,1.76
2023-03-04T21:43:59.914Z,1.77
2023-03-04T21:46:01.590Z,1.78
2023-03-04T21:48:03.774Z,1.80
2023-03-04T21:50:08.094Z,1.82
2023-03-04T21:52:10.157Z,1.82
2023-03-04T21:54:14.316Z,1.84
2023-03-04T21:56:16.201Z,1.86
2023-03-04T21:58:17.738Z,1.88
2023-03-04T22:00:20.041Z,1.89
2023-03-04T22:02:24.148Z,1.91
2023-03-04T22:04:26.040Z,1.93
2023-03-04T22:06:31.332Z,1.95
2023-03-04T22:08:33.402Z,1.96
2023-03-04T22:10:37.910Z,1.99
2023-03-04T22:12:39.555Z,2.02
2023-03-04T22:14:41.619Z,2.03
2023-03-04T22:16:54.506Z,2.06
2023-03-04T22:18:57.839Z,2.08
2023-03-04T22:21:01.045Z,2.11
2023-03-04T22:23:04.199Z,2.12
2023-03-04T22:25:06.788Z,2.13
2023-03-04T22:27:08.428Z,2.14
2023-03-04T22:29:11.716Z,2.16
2023-03-04T22:31:16.806Z,2.19
2023-03-04T22:33:18.432Z,2.21
2023-03-04T22:35:20.315Z,2.22
2023-03-04T22:37:21.853Z,2.25
2023-03-04T22:39:25.563Z,2.24
2023-03-04T22:41:27.156Z,2.26
2023-03-04T22:43:29.223Z,2.29
2023-03-04T22:45:31.586Z,2.31
2023-03-04T22:47:35.687Z,2.33
2023-03-04T22:49:40.014Z,2.34
2023-03-04T22:51:44.362Z,2.36
2023-03-04T22:53:46.691Z,2.37
2023-03-04T22:55:57.752Z,2.39
2023-03-04T22:57:59.575Z,2.41
2023-03-04T23:00:01.507Z,2.41
2023-03-04T23:02:03.177Z,2.43
2023-03-04T23:04:05.475Z,2.43
2023-03-04T23:06:10.004Z,2.44
2023-03-04T23:08:12.052Z,2.45
2023-03-04T23:10:17.253Z,2.47
2023-03-04T23:12:20.378Z,2.48
2023-03-04T23:14:22.462Z,2.49
2023-03-04T23:16:25.274Z,2.50
2023-03-04T23:18:27.186Z,2.49
2023-03-04T23:20:28.841Z,2.52
2023-03-04T23:22:33.207Z,2.53
2023-03-04T23:24:35.976Z,2.54
2023-03-04T23:26:40.647Z,2.56
2023-03-04T23:28:44.572Z,2.58
2023-03-04T23:30:46.266Z,2.58
2023-03-04T23:32:47.929Z,2.59
2023-03-04T23:34:49.675Z,2.59
2023-03-04T23:36:51.257Z,2.60
2023-03-04T23:38:53.105Z,2.62
2023-03-04T23:40:54.769Z,2.61
2023-03-04T23:42:56.576Z,2.63
2023-03-04T23:45:13.706Z,2.65
2023-03-04T23:47:15.695Z,2.66
2023-03-04T23:49:17.709Z,2.66
2023-03-04T23:51:22.184Z,2.68
2023-03-04T23:53:23.719Z,2.70
2023-03-04T23:55:25.679Z,2.70
2023-03-04T23:57:27.690Z,2.72
2023-03-04T23:59:29.844Z,2.74
